createdAt,value
2023-01-31T00:00:30.765Z,48.58
2023-01-31T00:02:32.112Z,48.45
2023-01-31T00:04:33.482Z,48.86
2023-01-31T00:06:35.128Z,48.94
2023-01-31T00:08:36.476Z,49.02
2023-01-31T00:10:37.812Z,49.38
2023-01-31T00:12:39.158Z,49.62
2023-01-31T00:14:40.498Z,49.58
2023-01-31T00:16:41.823Z,49.93
2023-01-31T00:18:43.159Z,49.88
2023-01-31T00:20:44.457Z,49.97
2023-01-31T00:22:45.759Z,49.74
2023-01-31T00:24:47.127Z,50.32
2023-01-31T00:26:49.004Z,50.57
2023-01-31T00:28:50.349Z,50.68
2023-01-31T00:30:51.706Z,50.86
2023-01-31T00:32:53.024Z,50.72
2023-01-31T00:34:54.635Z,51.29
2023-01-31T00:36:55.962Z,52.06
2023-01-31T00:38:57.279Z,52.03
2023-01-31T00:40:58.612Z,51.70
2023-01-31T00:42:59.912Z,51.77
2023-01-31T00:45:01.218Z,52.16
2023-01-31T00:47:02.554Z,51.91
2023-01-31T00:49:04.005Z,52.06
2023-01-31T00:51:05.311Z,52.25
2023-01-31T00:53:06.598Z,52.39
2023-01-31T00:55:08.257Z,52.16
2023-01-31T00:57:09.597Z,52.41
2023-01-31T00:59:10.927Z,52.30
2023-01-31T01:01:12.319Z,51.93
2023-01-31T01:03:13.716Z,52.28
2023-01-31T01:05:15.015Z,52.33
2023-01-31T01:07:16.306Z,52.10
2023-01-31T01:09:17.710Z,52.33
2023-01-31T01:11:19.038Z,51.89
2023-01-31T01:13:20.371Z,52.13
2023-01-31T01:15:22.047Z,51.54
2023-01-31T01:17:23.591Z,51.58
2023-01-31T01:19:24.928Z,51.70
2023-01-31T01:21:26.267Z,51.63
2023-01-31T01:23:27.558Z,51.68
2023-01-31T01:25:28.854Z,51.62
2023-01-31T01:27:30.324Z,51.97
2023-01-31T01:29:31.691Z,51.81
2023-01-31T01:31:33.143Z,51.91
2023-01-31T01:33:34.491Z,51.90
2023-01-31T01:35:36.271Z,51.94
2023-01-31T01:37:37.630Z,51.97
2023-01-31T01:39:38.988Z,51.68
2023-01-31T01:41:40.412Z,51.99
2023-01-31T01:43:41.768Z,51.83
2023-01-31T01:45:43.094Z,52.43
2023-01-31T01:47:45.389Z,52.11
2023-01-31T01:49:46.705Z,51.97
2023-01-31T01:51:48.029Z,52.21
2023-01-31T01:53:49.346Z,52.52
2023-01-31T01:55:50.626Z,52.60
2023-01-31T01:57:51.929Z,53.01
2023-01-31T01:59:53.236Z,53.10
2023-01-31T02:01:54.607Z,53.11
2023-01-31T02:03:55.951Z,53.28
2023-01-31T02:05:57.246Z,53.08
2023-01-31T02:07:58.538Z,53.26
2023-01-31T02:09:59.874Z,53.49
2023-01-31T02:12:02.206Z,53.32
2023-01-31T02:14:03.625Z,53.23
2023-01-31T02:16:04.983Z,53.39
2023-01-31T02:18:06.301Z,53.40
2023-01-31T02:20:07.604Z,53.58
2023-01-31T02:22:08.949Z,53.52
2023-01-31T02:24:10.259Z,53.26
2023-01-31T02:26:11.663Z,53.48
2023-01-31T02:28:13.109Z,53.36
2023-01-31T02:30:14.414Z,53.84
2023-01-31T02:32:15.726Z,53.33
2023-01-31T02:34:17.140Z,53.79
2023-01-31T02:36:18.461Z,54.69
2023-01-31T02:38:19.774Z,54.34
2023-01-31T02:40:21.654Z,54.19
2023-01-31T02:42:23.049Z,53.81
2023-01-31T02:44:42.900Z,53.33
2023-01-31T02:46:44.194Z,53.45
2023-01-31T02:48:45.492Z,54.06
2023-01-31T02:50:46.838Z,53.85
2023-01-31T02:52:48.174Z,54.46
2023-01-31T02:55:08.152Z,53.61
2023-01-31T02:57:09.443Z,53.61
2023-01-31T02:59:10.766Z,53.68
2023-01-31T03:01:12.191Z,53.69
2023-01-31T03:03:14.236Z,53.47
2023-01-31T03:05:15.993Z,53.40
2023-01-31T03:07:17.300Z,53.32
2023-01-31T03:09:22.649Z,53.47
2023-01-31T03:11:23.978Z,53.75
2023-01-31T03:13:25.366Z,53.67
2023-01-31T03:15:26.706Z,53.56
2023-01-31T03:17:33.990Z,53.53
2023-01-31T03:19:35.305Z,53.80
2023-01-31T03:21:36.606Z,53.97
2023-01-31T03:23:38.498Z,53.90
2023-01-31T03:25:39.838Z,53.90
2023-01-31T03:27:41.175Z,53.85
2023-01-31T03:29:42.548Z,54.04
2023-01-31T03:31:43.909Z,54.35
2023-01-31T03:33:45.492Z,54.04
2023-01-31T03:35:46.794Z,53.95
2023-01-31T03:37:48.653Z,54.07
2023-01-31T03:39:49.950Z,53.89
2023-01-31T03:41:51.294Z,54.21
2023-01-31T03:43:52.767Z,54.44
2023-01-31T03:45:54.094Z,53.89
2023-01-31T03:47:55.516Z,54.29
2023-01-31T03:49:56.817Z,54.48
2023-01-31T03:51:58.146Z,54.62
2023-01-31T03:53:59.442Z,54.33
2023-01-31T03:56:00.734Z,53.92
2023-01-31T03:58:02.239Z,54.08
2023-01-31T04:00:04.513Z,54.50
2023-01-31T04:02:05.890Z,54.59
2023-01-31T04:04:07.230Z,54.61
2023-01-31T04:06:08.522Z,54.83
2023-01-31T04:08:09.810Z,54.62
2023-01-31T04:10:12.186Z,54.64
2023-01-31T04:12:14.019Z,54.98
2023-01-31T04:14:16.008Z,55.05
2023-01-31T04:16:17.471Z,54.88
2023-01-31T04:18:18.789Z,54.52
2023-01-31T04:20:20.109Z,54.42
2023-01-31T04:22:21.451Z,54.03
2023-01-31T04:24:22.786Z,54.33
2023-01-31T04:26:24.224Z,53.99
2023-01-31T04:28:25.542Z,54.02
2023-01-31T04:30:26.893Z,53.23
2023-01-31T04:32:28.194Z,53.64
2023-01-31T04:34:29.522Z,53.66
2023-01-31T04:36:30.827Z,53.54
2023-01-31T04:38:32.120Z,53.25
2023-01-31T04:40:33.969Z,53.59
2023-01-31T04:42:35.438Z,53.77
2023-01-31T04:44:36.777Z,54.16
2023-01-31T04:46:38.108Z,53.79
2023-01-31T04:48:41.346Z,53.47
2023-01-31T04:50:42.810Z,53.68
2023-01-31T04:52:44.425Z,53.66
2023-01-31T04:54:45.737Z,53.94
2023-01-31T04:56:47.095Z,54.20
2023-01-31T04:58:48.483Z,54.22
2023-01-31T05:00:49.815Z,54.42
2023-01-31T05:02:51.380Z,54.46
2023-01-31T05:04:52.780Z,54.85
2023-01-31T05:06:54.210Z,54.53
2023-01-31T05:08:55.507Z,54.51
2023-01-31T05:10:56.847Z,55.02
2023-01-31T05:12:58.383Z,55.23
2023-01-31T05:14:59.694Z,55.28
2023-01-31T05:17:01.038Z,55.36
2023-01-31T05:19:02.367Z,54.93
2023-01-31T05:21:03.989Z,55.02
2023-01-31T05:23:05.322Z,55.13
2023-01-31T05:25:06.671Z,54.97
2023-01-31T05:27:08.014Z,55.18
2023-01-31T05:29:09.488Z,54.96
2023-01-31T05:31:13.219Z,55.03
2023-01-31T05:33:14.737Z,54.85
2023-01-31T05:35:16.264Z,54.74
2023-01-31T05:37:17.645Z,54.31
2023-01-31T05:39:18.987Z,54.27
2023-01-31T05:41:20.330Z,54.24
2023-01-31T05:43:21.696Z,53.97
2023-01-31T05:45:23.310Z,53.84
2023-01-31T05:47:24.907Z,53.73
2023-01-31T05:49:26.268Z,53.30
2023-01-31T05:51:27.659Z,53.56
2023-01-31T05:53:28.991Z,53.01
2023-01-31T05:55:30.340Z,52.85
2023-01-31T05:57:32.216Z,53.11
2023-01-31T05:59:33.771Z,53.29
2023-01-31T06:01:35.114Z,53.55
2023-01-31T06:03:36.496Z,53.78
2023-01-31T06:05:40.286Z,53.79
2023-01-31T06:07:41.646Z,53.95
2023-01-31T06:09:43.107Z,53.74
2023-01-31T06:11:44.697Z,53.80
2023-01-31T06:13:46.119Z,54.06
2023-01-31T06:15:47.442Z,53.92
2023-01-31T06:17:48.738Z,54.47
2023-01-31T06:19:50.111Z,54.63
2023-01-31T06:21:51.402Z,54.76
2023-01-31T06:23:55.849Z,54.26
2023-01-31T06:25:57.150Z,54.60
2023-01-31T06:27:58.500Z,54.95
2023-01-31T06:29:59.848Z,54.73
2023-01-31T06:32:02.179Z,54.80
2023-01-31T06:34:03.739Z,55.19
2023-01-31T06:36:05.084Z,54.95
2023-01-31T06:38:06.523Z,55.16
2023-01-31T06:40:07.846Z,55.04
2023-01-31T06:42:09.172Z,55.22
2023-01-31T06:44:10.522Z,55.43
2023-01-31T06:46:12.211Z,55.57
2023-01-31T06:48:13.606Z,55.52
2023-01-31T06:50:14.914Z,55.43
2023-01-31T06:52:16.211Z,55.47
2023-01-31T06:54:17.546Z,55.06
2023-01-31T06:56:18.842Z,55.06
2023-01-31T06:58:20.843Z,54.56
2023-01-31T07:00:22.369Z,54.87
2023-01-31T07:02:23.734Z,54.48
2023-01-31T07:04:25.285Z,54.00
2023-01-31T07:06:26.615Z,53.80
2023-01-31T07:08:27.908Z,54.43
2023-01-31T07:10:31.515Z,53.65
2023-01-31T07:12:32.826Z,53.81
2023-01-31T07:14:34.123Z,53.73
2023-01-31T07:16:37.744Z,54.18
2023-01-31T07:18:39.084Z,53.75
2023-01-31T07:20:40.373Z,54.15
2023-01-31T07:22:41.702Z,54.49
2023-01-31T07:24:43.046Z,54.94
2023-01-31T07:26:44.476Z,54.97
2023-01-31T07:28:45.831Z,54.79
2023-01-31T07:30:48.481Z,55.15
2023-01-31T07:32:50.148Z,54.66
2023-01-31T07:34:51.484Z,54.86
2023-01-31T07:36:52.819Z,55.06
2023-01-31T07:38:55.004Z,54.48
2023-01-31T07:40:56.317Z,54.68
2023-01-31T07:42:57.612Z,55.14
2023-01-31T07:44:59.863Z,55.21
2023-01-31T07:47:04.006Z,54.91
2023-01-31T07:49:05.332Z,54.99
2023-01-31T07:51:06.682Z,55.19
2023-01-31T07:53:07.975Z,55.25
2023-01-31T07:55:09.273Z,55.67
2023-01-31T07:57:10.583Z,55.92
2023-01-31T07:59:13.592Z,55.76
2023-01-31T08:01:34.072Z,55.61
2023-01-31T08:03:36.410Z,55.72
2023-01-31T08:05:37.751Z,55.54
2023-01-31T08:07:39.162Z,55.84
2023-01-31T08:09:40.668Z,56.07
2023-01-31T08:11:42.339Z,55.57
2023-01-31T08:13:43.822Z,55.51
2023-01-31T08:15:45.438Z,55.92
2023-01-31T08:17:46.755Z,55.53
2023-01-31T08:19:48.099Z,55.17
2023-01-31T08:21:49.426Z,55.18
2023-01-31T08:23:50.741Z,54.30
2023-01-31T08:25:52.050Z,53.56
2023-01-31T08:27:53.472Z,53.66
2023-01-31T08:29:54.869Z,53.21
2023-01-31T08:31:56.352Z,53.41
2023-01-31T08:33:57.813Z,52.84
2023-01-31T08:35:59.449Z,53.08
2023-01-31T08:38:15.352Z,52.67
2023-01-31T08:40:17.587Z,52.68
2023-01-31T08:42:18.985Z,52.62
2023-01-31T08:44:20.647Z,52.63
2023-01-31T08:46:22.045Z,52.27
2023-01-31T08:48:23.402Z,52.54
2023-01-31T08:50:27.985Z,52.65
2023-01-31T08:52:29.458Z,52.37
2023-01-31T08:54:31.334Z,52.87
2023-01-31T08:56:32.778Z,52.63
2023-01-31T08:58:34.125Z,52.36
2023-01-31T09:00:35.743Z,52.51
2023-01-31T09:02:37.129Z,47.69
2023-01-31T09:04:38.415Z,47.06
2023-01-31T09:06:40.001Z,45.24
2023-01-31T09:08:41.340Z,44.81
2023-01-31T09:10:42.675Z,44.13
2023-01-31T09:12:43.976Z,43.58
2023-01-31T09:14:45.308Z,46.59
2023-01-31T09:16:46.808Z,43.95
2023-01-31T09:18:48.363Z,43.59
2023-01-31T09:20:49.715Z,44.35
2023-01-31T09:22:51.035Z,44.48
2023-01-31T09:24:52.391Z,44.77
2023-01-31T09:26:55.465Z,44.83
2023-01-31T09:28:57.967Z,45.74
2023-01-31T09:30:59.346Z,45.88
2023-01-31T09:33:01.654Z,46.96
2023-01-31T09:35:02.979Z,46.52
2023-01-31T09:37:04.292Z,47.01
2023-01-31T09:39:05.658Z,46.96
2023-01-31T09:41:07.018Z,47.05
2023-01-31T09:43:08.318Z,46.63
2023-01-31T09:45:09.616Z,46.66
2023-01-31T09:47:10.982Z,47.47
2023-01-31T09:49:12.370Z,47.06
2023-01-31T09:51:13.695Z,47.12
2023-01-31T09:53:15.004Z,47.01
2023-01-31T09:55:16.379Z,47.37
2023-01-31T09:57:17.699Z,47.11
2023-01-31T09:59:19.022Z,47.61
2023-01-31T10:01:20.392Z,47.53
2023-01-31T10:03:21.698Z,47.51
2023-01-31T10:05:23.284Z,47.27
2023-01-31T10:07:24.805Z,47.79
2023-01-31T10:09:27.322Z,48.23
2023-01-31T10:11:29.399Z,48.52
2023-01-31T10:13:31.732Z,48.25
2023-01-31T10:15:33.078Z,48.35
2023-01-31T10:17:34.597Z,48.23
2023-01-31T10:19:36.182Z,47.46
2023-01-31T10:21:37.503Z,47.75
2023-01-31T10:23:38.850Z,48.24
2023-01-31T10:25:40.349Z,48.01
2023-01-31T10:27:41.680Z,48.85
2023-01-31T10:29:43.018Z,48.63
2023-01-31T10:31:44.567Z,48.16
2023-01-31T10:33:45.996Z,49.00
2023-01-31T10:35:47.325Z,49.61
2023-01-31T10:37:48.675Z,49.97
2023-01-31T10:39:49.972Z,50.61
2023-01-31T10:41:51.295Z,50.58
2023-01-31T10:43:52.747Z,50.87
2023-01-31T10:45:54.082Z,50.63
2023-01-31T10:48:05.558Z,50.53
2023-01-31T10:50:08.068Z,50.75
2023-01-31T10:52:09.405Z,50.81
2023-01-31T10:54:13.089Z,50.67
2023-01-31T10:56:14.478Z,50.35
2023-01-31T10:58:15.795Z,50.66
2023-01-31T11:00:17.094Z,50.55
2023-01-31T11:02:18.404Z,50.50
2023-01-31T11:04:19.715Z,50.72
2023-01-31T11:06:21.072Z,50.31
2023-01-31T11:08:22.375Z,50.19
2023-01-31T11:10:23.998Z,50.04
2023-01-31T11:12:25.423Z,49.80
2023-01-31T11:14:26.747Z,49.92
2023-01-31T11:16:28.228Z,50.05
2023-01-31T11:18:29.582Z,49.41
2023-01-31T11:20:30.945Z,49.54
2023-01-31T11:22:32.233Z,49.05
2023-01-31T11:24:33.548Z,49.32
2023-01-31T11:26:34.944Z,48.26
2023-01-31T11:28:36.362Z,48.92
2023-01-31T11:30:37.723Z,48.17
2023-01-31T11:32:39.091Z,48.63
2023-01-31T11:34:40.453Z,49.02
2023-01-31T11:36:41.810Z,48.80
2023-01-31T11:38:43.213Z,48.91
2023-01-31T11:40:44.514Z,49.23
2023-01-31T11:42:45.813Z,49.61
2023-01-31T11:44:47.675Z,49.78
2023-01-31T11:46:49.010Z,50.09
2023-01-31T11:48:50.320Z,49.75
2023-01-31T11:50:51.630Z,50.24
2023-01-31T11:52:52.945Z,50.42
2023-01-31T11:54:54.238Z,50.31
2023-01-31T11:56:56.466Z,50.55
2023-01-31T11:58:57.794Z,51.02
2023-01-31T12:00:59.125Z,50.61
2023-01-31T12:03:01.108Z,50.66
2023-01-31T12:05:02.529Z,50.62
2023-01-31T12:07:03.881Z,51.31
2023-01-31T12:09:05.229Z,51.14
2023-01-31T12:11:06.550Z,51.43
2023-01-31T12:13:18.098Z,51.47
2023-01-31T12:15:20.360Z,51.54
2023-01-31T12:17:21.961Z,51.95
2023-01-31T12:19:25.598Z,51.50
2023-01-31T12:21:26.931Z,51.95
2023-01-31T12:23:28.263Z,52.31
2023-01-31T12:25:29.678Z,52.06
2023-01-31T12:27:30.985Z,51.54
2023-01-31T12:29:32.303Z,51.72
2023-01-31T12:31:33.625Z,51.07
2023-01-31T12:33:34.975Z,50.86
2023-01-31T12:35:36.300Z,51.37
2023-01-31T12:37:37.651Z,50.77
2023-01-31T12:39:38.958Z,50.82
2023-01-31T12:41:40.701Z,50.47
2023-01-31T12:43:42.088Z,50.64
2023-01-31T12:45:43.429Z,50.35
2023-01-31T12:47:44.798Z,50.31
2023-01-31T12:49:46.118Z,50.24
2023-01-31T12:51:47.455Z,49.62
2023-01-31T12:53:48.745Z,49.55
2023-01-31T12:55:50.093Z,49.30
2023-01-31T12:57:51.408Z,49.64
2023-01-31T12:59:52.802Z,49.63
2023-01-31T13:01:54.185Z,49.20
2023-01-31T13:03:55.524Z,49.08
2023-01-31T13:05:56.896Z,48.99
2023-01-31T13:07:58.241Z,49.41
2023-01-31T13:09:59.531Z,49.06
2023-01-31T13:12:02.021Z,49.64
2023-01-31T13:14:03.533Z,49.40
2023-01-31T13:16:04.858Z,49.80
2023-01-31T13:18:06.268Z,50.18
2023-01-31T13:20:07.595Z,50.16
2023-01-31T13:22:08.926Z,50.30
2023-01-31T13:24:10.252Z,50.39
2023-01-31T13:26:11.547Z,50.24
2023-01-31T13:28:12.829Z,50.17
2023-01-31T13:30:14.174Z,50.11
2023-01-31T13:32:15.578Z,50.08
2023-01-31T13:34:16.878Z,49.98
2023-01-31T13:36:18.211Z,49.92
2023-01-31T13:38:19.555Z,50.24
2023-01-31T13:40:21.065Z,49.94
2023-01-31T13:42:22.420Z,50.01
2023-01-31T13:44:23.759Z,49.72
2023-01-31T13:46:25.073Z,49.93
2023-01-31T13:48:26.456Z,49.83
2023-01-31T13:50:27.763Z,49.84
2023-01-31T13:52:29.061Z,49.78
2023-01-31T13:54:30.354Z,49.82
2023-01-31T13:56:31.702Z,49.54
2023-01-31T13:58:34.409Z,49.74
2023-01-31T14:00:36.680Z,49.39
2023-01-31T14:02:38.114Z,49.64
2023-01-31T14:04:40.562Z,49.58
2023-01-31T14:06:41.979Z,49.38
2023-01-31T14:08:43.326Z,49.65
2023-01-31T14:10:44.631Z,49.16
2023-01-31T14:12:45.967Z,49.25
2023-01-31T14:14:47.282Z,49.52
2023-01-31T14:16:51.688Z,49.02
2023-01-31T14:18:54.170Z,49.30
2023-01-31T14:20:55.463Z,49.28
2023-01-31T14:22:56.760Z,49.08
2023-01-31T14:24:59.965Z,48.82
2023-01-31T14:27:01.275Z,49.01
2023-01-31T14:29:02.616Z,49.01
2023-01-31T14:31:03.958Z,49.01
2023-01-31T14:33:05.426Z,48.84
2023-01-31T14:35:06.724Z,48.88
2023-01-31T14:37:08.010Z,49.24
2023-01-31T14:39:09.315Z,49.16
2023-01-31T14:41:10.612Z,49.28
2023-01-31T14:43:11.953Z,49.24
2023-01-31T14:45:13.960Z,49.25
2023-01-31T14:47:15.299Z,49.17
2023-01-31T14:49:16.638Z,49.22
2023-01-31T14:51:17.923Z,49.36
2023-01-31T14:53:19.229Z,49.32
2023-01-31T14:55:21.281Z,49.42
2023-01-31T14:57:22.894Z,49.35
2023-01-31T14:59:24.200Z,49.43
2023-01-31T15:01:31.653Z,49.71
2023-01-31T15:03:33.108Z,49.83
2023-01-31T15:05:34.491Z,49.85
2023-01-31T15:07:35.807Z,49.45
2023-01-31T15:09:37.237Z,49.75
2023-01-31T15:11:42.828Z,49.61
2023-01-31T15:13:44.289Z,49.62
2023-01-31T15:15:45.592Z,49.69
2023-01-31T15:17:46.891Z,49.83
2023-01-31T15:19:48.515Z,49.68
2023-01-31T15:21:53.198Z,49.67
2023-01-31T15:23:54.617Z,49.67
2023-01-31T15:25:55.924Z,49.60
2023-01-31T15:27:57.673Z,49.44
2023-01-31T15:29:59.048Z,49.53
2023-01-31T15:32:00.393Z,49.42
2023-01-31T15:34:01.809Z,49.44
2023-01-31T15:36:05.322Z,49.22
2023-01-31T15:38:06.895Z,49.09
2023-01-31T15:40:08.228Z,49.28
2023-01-31T15:42:09.550Z,48.99
2023-01-31T15:44:10.840Z,49.05
2023-01-31T15:46:18.072Z,48.96
2023-01-31T15:48:19.478Z,49.29
2023-01-31T15:50:20.825Z,48.80
2023-01-31T15:52:25.398Z,48.97
2023-01-31T15:54:26.748Z,48.46
2023-01-31T15:56:28.697Z,48.88
2023-01-31T15:58:30.081Z,48.49
2023-01-31T16:00:31.445Z,48.54
2023-01-31T16:02:38.590Z,48.71
2023-01-31T16:04:39.926Z,48.73
2023-01-31T16:06:41.242Z,48.45
2023-01-31T16:08:45.323Z,48.44
2023-01-31T16:10:46.655Z,48.51
2023-01-31T16:12:47.967Z,48.62
2023-01-31T16:14:49.337Z,48.71
2023-01-31T16:16:50.686Z,48.68
2023-01-31T16:18:55.003Z,48.64
2023-01-31T16:20:57.785Z,48.76
2023-01-31T16:22:59.180Z,49.16
2023-01-31T16:25:03.256Z,49.24
2023-01-31T16:27:04.577Z,48.84
2023-01-31T16:29:08.831Z,48.91
2023-01-31T16:31:10.425Z,49.11
2023-01-31T16:33:11.788Z,49.20
2023-01-31T16:35:13.489Z,49.02
2023-01-31T16:37:16.703Z,49.26
2023-01-31T16:39:18.043Z,49.20
2023-01-31T16:41:19.334Z,49.26
2023-01-31T16:43:20.677Z,49.43
2023-01-31T16:45:22.234Z,49.43
2023-01-31T16:47:23.758Z,49.38
2023-01-31T16:49:25.170Z,49.09
2023-01-31T16:51:29.379Z,49.41
2023-01-31T16:53:30.749Z,49.16
2023-01-31T16:55:35.097Z,49.45
2023-01-31T16:57:38.372Z,49.36
2023-01-31T16:59:40.988Z,49.35
2023-01-31T17:01:42.454Z,49.16
2023-01-31T17:03:43.827Z,49.15
2023-01-31T17:05:48.033Z,49.21
2023-01-31T17:07:49.371Z,49.16
2023-01-31T17:09:50.677Z,48.85
2023-01-31T17:11:52.120Z,48.87
2023-01-31T17:13:53.419Z,49.10
2023-01-31T17:15:54.781Z,48.80
2023-01-31T17:17:56.101Z,48.88
2023-01-31T17:19:57.423Z,48.55
2023-01-31T17:21:59.972Z,48.59
2023-01-31T17:24:10.115Z,48.71
2023-01-31T17:26:11.412Z,48.71
2023-01-31T17:28:12.734Z,48.69
2023-01-31T17:30:14.138Z,48.79
2023-01-31T17:32:15.502Z,48.88
2023-01-31T17:34:19.708Z,48.71
2023-01-31T17:36:21.014Z,48.83
2023-01-31T17:38:22.334Z,48.59
2023-01-31T17:40:23.695Z,48.67
2023-01-31T17:42:25.020Z,48.77
2023-01-31T17:44:26.323Z,48.69
2023-01-31T17:46:28.383Z,48.91
2023-01-31T17:48:29.813Z,48.48
2023-01-31T17:50:34.116Z,48.75
2023-01-31T17:52:35.417Z,48.82
2023-01-31T17:54:39.376Z,48.63
2023-01-31T17:56:40.731Z,48.71
2023-01-31T17:58:42.031Z,48.68
2023-01-31T18:00:46.060Z,48.85
2023-01-31T18:02:47.610Z,48.95
2023-01-31T18:04:49.045Z,49.00
2023-01-31T18:06:50.378Z,49.07
2023-01-31T18:08:54.367Z,49.35
2023-01-31T18:10:55.701Z,49.66
2023-01-31T18:12:57.001Z,49.64
2023-01-31T18:14:58.322Z,49.68
2023-01-31T18:16:59.915Z,49.68
2023-01-31T18:19:03.966Z,49.69
2023-01-31T18:21:05.576Z,49.53
2023-01-31T18:23:06.881Z,49.24
2023-01-31T18:25:08.223Z,49.28
2023-01-31T18:27:09.524Z,48.91
2023-01-31T18:29:13.026Z,48.59
2023-01-31T18:31:15.882Z,48.89
2023-01-31T18:33:17.383Z,48.66
2023-01-31T18:35:21.331Z,48.23
2023-01-31T18:37:28.705Z,48.33
2023-01-31T18:39:30.001Z,47.98
2023-01-31T18:41:31.290Z,48.39
2023-01-31T18:43:32.578Z,47.99
2023-01-31T18:45:33.878Z,48.26
2023-01-31T18:47:35.176Z,47.91
2023-01-31T18:49:36.466Z,47.86
2023-01-31T18:51:37.839Z,48.11
2023-01-31T18:53:39.157Z,47.99
2023-01-31T18:55:40.503Z,47.79
2023-01-31T18:57:53.849Z,48.04
2023-01-31T18:59:55.259Z,47.82
2023-01-31T19:01:56.591Z,47.70
2023-01-31T19:03:58.429Z,47.58
2023-01-31T19:05:59.776Z,48.14
2023-01-31T19:08:01.074Z,47.77
2023-01-31T19:10:02.423Z,47.85
2023-01-31T19:12:06.706Z,48.19
2023-01-31T19:14:08.055Z,47.78
2023-01-31T19:16:09.405Z,48.26
2023-01-31T19:18:10.824Z,48.06
2023-01-31T19:20:12.132Z,48.15
2023-01-31T19:22:13.501Z,47.96
2023-01-31T19:24:15.405Z,48.33
2023-01-31T19:26:17.220Z,48.26
2023-01-31T19:28:22.854Z,48.61
2023-01-31T19:30:24.265Z,48.33
2023-01-31T19:32:25.585Z,48.37
2023-01-31T19:34:37.258Z,48.34
2023-01-31T19:36:38.643Z,48.65
2023-01-31T19:38:40.130Z,48.48
2023-01-31T19:40:41.443Z,48.62
2023-01-31T19:42:49.084Z,48.57
2023-01-31T19:44:50.419Z,48.61
2023-01-31T19:46:52.167Z,48.85
2023-01-31T19:48:53.483Z,48.68
2023-01-31T19:50:54.897Z,48.82
2023-01-31T19:52:56.270Z,48.70
2023-01-31T19:54:57.606Z,48.70
2023-01-31T19:56:58.942Z,48.55
2023-01-31T19:59:03.321Z,48.53
2023-01-31T20:01:04.641Z,48.34
2023-01-31T20:03:08.880Z,48.35
2023-01-31T20:05:16.734Z,48.13
2023-01-31T20:07:18.048Z,48.07
2023-01-31T20:09:20.272Z,48.14
2023-01-31T20:11:21.800Z,47.89
2023-01-31T20:13:23.103Z,48.04
2023-01-31T20:15:24.403Z,47.99
2023-01-31T20:17:25.709Z,47.84
2023-01-31T20:19:27.522Z,47.88
2023-01-31T20:21:28.837Z,47.84
2023-01-31T20:23:30.154Z,47.45
2023-01-31T20:25:34.651Z,47.63
2023-01-31T20:27:36.139Z,47.89
2023-01-31T20:29:37.443Z,47.66
2023-01-31T20:31:38.814Z,47.90
2023-01-31T20:33:40.128Z,47.68
2023-01-31T20:35:41.451Z,48.02
2023-01-31T20:37:42.762Z,47.71
2023-01-31T20:39:44.109Z,47.71
2023-01-31T20:41:45.442Z,47.92
2023-01-31T20:43:50.460Z,47.90
2023-01-31T20:45:51.856Z,47.77
2023-01-31T20:47:53.188Z,47.69
2023-01-31T20:49:54.529Z,47.95
2023-01-31T20:51:55.842Z,47.96
2023-01-31T20:53:58.883Z,47.84
2023-01-31T20:56:00.852Z,48.31
2023-01-31T20:58:02.200Z,47.93
2023-01-31T21:00:06.872Z,48.19
2023-01-31T21:02:08.574Z,48.23
2023-01-31T21:04:10.058Z,48.30
2023-01-31T21:06:14.446Z,48.13
2023-01-31T21:08:15.796Z,48.28
2023-01-31T21:10:17.107Z,48.25
2023-01-31T21:12:24.571Z,48.17
2023-01-31T21:14:25.906Z,48.22
2023-01-31T21:16:27.281Z,48.27
2023-01-31T21:18:28.613Z,48.64
2023-01-31T21:20:32.627Z,48.19
2023-01-31T21:22:34.424Z,48.31
2023-01-31T21:24:36.767Z,48.26
2023-01-31T21:26:38.124Z,48.43
2023-01-31T21:28:43.803Z,48.09
2023-01-31T21:30:45.270Z,48.46
2023-01-31T21:32:46.708Z,48.27
2023-01-31T21:34:48.007Z,48.22
2023-01-31T21:36:49.303Z,48.11
2023-01-31T21:38:51.119Z,47.77
2023-01-31T21:41:15.421Z,47.78
2023-01-31T21:43:16.724Z,48.00
2023-01-31T21:45:18.032Z,48.07
2023-01-31T21:47:19.345Z,47.86
2023-01-31T21:49:20.648Z,47.84
2023-01-31T21:51:24.935Z,47.83
2023-01-31T21:53:28.989Z,47.72
2023-01-31T21:55:30.500Z,47.71
2023-01-31T21:57:31.795Z,47.95
2023-01-31T21:59:33.478Z,47.91
2023-01-31T22:01:34.854Z,47.73
2023-01-31T22:03:36.222Z,47.83
2023-01-31T22:05:37.569Z,47.68
2023-01-31T22:07:40.422Z,47.67
2023-01-31T22:09:41.722Z,47.84
2023-01-31T22:11:43.104Z,47.61
2023-01-31T22:13:45.225Z,47.83
2023-01-31T22:15:46.611Z,48.01
2023-01-31T22:17:47.961Z,47.88
2023-01-31T22:19:49.303Z,48.76
2023-01-31T22:21:50.599Z,48.03
2023-01-31T22:23:51.895Z,48.37
2023-01-31T22:25:53.742Z,48.86
2023-01-31T22:27:57.479Z,47.47
2023-01-31T22:30:13.877Z,48.61
2023-01-31T22:32:16.944Z,48.84
2023-01-31T22:34:18.262Z,47.49
2023-01-31T22:36:19.610Z,48.15
2023-01-31T22:38:20.900Z,48.58
2023-01-31T22:40:25.274Z,48.45
2023-01-31T22:42:26.567Z,48.87
2023-01-31T22:44:27.910Z,48.39
2023-01-31T22:46:29.330Z,49.09
2023-01-31T22:48:30.677Z,47.95
2023-01-31T22:50:32.034Z,48.61
2023-01-31T22:52:33.351Z,49.26
2023-01-31T22:54:34.645Z,49.29
2023-01-31T22:56:36.030Z,48.73
2023-01-31T22:58:37.366Z,48.96
2023-01-31T23:00:38.678Z,49.79
2023-01-31T23:02:40.029Z,49.95
2023-01-31T23:04:41.337Z,49.80
2023-01-31T23:06:42.671Z,49.85
2023-01-31T23:08:44.121Z,48.76
2023-01-31T23:10:48.552Z,49.68
2023-01-31T23:12:49.922Z,49.41
2023-01-31T23:14:51.226Z,48.40
2023-01-31T23:17:11.538Z,49.66
2023-01-31T23:19:12.874Z,50.02
2023-01-31T23:21:14.188Z,50.15
2023-01-31T23:23:15.538Z,50.75
2023-01-31T23:25:16.914Z,50.39
2023-01-31T23:27:18.215Z,50.44
2023-01-31T23:29:19.503Z,50.67
2023-01-31T23:31:20.908Z,50.08
2023-01-31T23:33:22.244Z,50.80
2023-01-31T23:35:23.579Z,50.10
2023-01-31T23:37:24.875Z,48.70
2023-01-31T23:39:26.169Z,49.32
2023-01-31T23:41:27.537Z,49.67
2023-01-31T23:43:28.887Z,49.21
2023-01-31T23:45:30.174Z,49.54
2023-01-31T23:47:31.478Z,49.34
2023-01-31T23:49:32.766Z,49.58
2023-01-31T23:51:34.088Z,49.11
2023-01-31T23:53:35.432Z,51.00
2023-01-31T23:55:37.170Z,49.89
2023-01-31T23:57:38.495Z,49.71
2023-01-31T23:59:39.797Z,49.64
